sensor_id;sensor_type;location;lat;lon;timestamp;P1;durP1;ratioP1;P2;durP2;ratioP2
50683;SDS011;36654;45.042;38.994;2022-11-21T00:00:33;6.97;;;4.35;;
50683;SDS011;36654;45.042;38.994;2022-11-21T00:03:00;8.95;;;4.22;;
50683;SDS011;36654;45.042;38.994;2022-11-21T00:05:27;6.50;;;4.65;;
50683;SDS011;36654;45.042;38.994;2022-11-21T00:07:53;8.77;;;4.38;;
50683;SDS011;36654;45.042;38.994;2022-11-21T00:10:20;8.82;;;4.57;;
50683;SDS011;36654;45.042;38.994;2022-11-21T00:12:46;10.60;;;6.40;;
50683;SDS011;36654;45.042;38.994;2022-11-21T00:15:12;11.15;;;4.45;;
50683;SDS011;36654;45.042;38.994;2022-11-21T00:17:38;7.57;;;4.30;;
50683;SDS011;36654;45.042;38.994;2022-11-21T00:20:03;6.45;;;4.18;;
50683;SDS011;36654;45.042;38.994;2022-11-21T00:22:30;9.07;;;4.75;;
50683;SDS011;36654;45.042;38.994;2022-11-21T00:24:56;9.75;;;4.75;;
50683;SDS011;36654;45.042;38.994;2022-11-21T00:27:22;7.38;;;4.40;;
50683;SDS011;36654;45.042;38.994;2022-11-21T00:29:47;10.07;;;4.28;;
50683;SDS011;36654;45.042;38.994;2022-11-21T00:32:13;10.52;;;4.28;;
50683;SDS011;36654;45.042;38.994;2022-11-21T00:34:39;9.05;;;4.40;;
50683;SDS011;36654;45.042;38.994;2022-11-21T00:37:04;8.45;;;4.72;;
50683;SDS011;36654;45.042;38.994;2022-11-21T00:39:30;9.13;;;4.55;;
50683;SDS011;36654;45.042;38.994;2022-11-21T00:41:55;10.02;;;5.35;;
50683;SDS011;36654;45.042;38.994;2022-11-21T00:44:21;9.60;;;4.47;;
50683;SDS011;36654;45.042;38.994;2022-11-21T00:46:47;8.20;;;4.80;;
50683;SDS011;36654;45.042;38.994;2022-11-21T00:49:12;8.20;;;4.75;;
50683;SDS011;36654;45.042;38.994;2022-11-21T00:51:38;11.15;;;4.25;;
50683;SDS011;36654;45.042;38.994;2022-11-21T00:54:04;10.77;;;4.95;;
50683;SDS011;36654;45.042;38.994;2022-11-21T00:56:29;8.05;;;5.15;;
50683;SDS011;36654;45.042;38.994;2022-11-21T00:58:55;5.38;;;4.50;;
50683;SDS011;36654;45.042;38.994;2022-11-21T01:01:20;9.85;;;5.35;;
50683;SDS011;36654;45.042;38.994;2022-11-21T01:03:46;12.45;;;5.63;;
50683;SDS011;36654;45.042;38.994;2022-11-21T01:06:13;10.60;;;4.90;;
50683;SDS011;36654;45.042;38.994;2022-11-21T01:08:41;6.57;;;4.20;;
50683;SDS011;36654;45.042;38.994;2022-11-21T01:11:09;10.68;;;4.82;;
50683;SDS011;36654;45.042;38.994;2022-11-21T01:13:39;6.40;;;4.78;;
50683;SDS011;36654;45.042;38.994;2022-11-21T01:16:06;11.05;;;4.50;;
50683;SDS011;36654;45.042;38.994;2022-11-21T01:18:36;8.27;;;4.25;;
50683;SDS011;36654;45.042;38.994;2022-11-21T01:21:04;7.93;;;4.53;;
50683;SDS011;36654;45.042;38.994;2022-11-21T01:23:31;7.53;;;4.18;;
50683;SDS011;36654;45.042;38.994;2022-11-21T01:26:01;8.65;;;5.22;;
50683;SDS011;36654;45.042;38.994;2022-11-21T01:28:30;8.75;;;5.03;;
50683;SDS011;36654;45.042;38.994;2022-11-21T01:31:06;9.02;;;4.47;;
50683;SDS011;36654;45.042;38.994;2022-11-21T01:33:34;6.10;;;4.20;;
50683;SDS011;36654;45.042;38.994;2022-11-21T01:36:10;7.53;;;5.00;;
50683;SDS011;36654;45.042;38.994;2022-11-21T01:38:57;7.28;;;4.32;;
50683;SDS011;36654;45.042;38.994;2022-11-21T01:41:28;8.93;;;4.78;;
50683;SDS011;36654;45.042;38.994;2022-11-21T01:43:57;10.60;;;4.60;;
50683;SDS011;36654;45.042;38.994;2022-11-21T01:46:24;8.50;;;5.00;;
50683;SDS011;36654;45.042;38.994;2022-11-21T01:48:52;7.22;;;4.90;;
50683;SDS011;36654;45.042;38.994;2022-11-21T01:53:54;10.57;;;4.45;;
50683;SDS011;36654;45.042;38.994;2022-11-21T01:56:41;8.63;;;5.00;;
50683;SDS011;36654;45.042;38.994;2022-11-21T01:59:25;9.63;;;4.43;;
50683;SDS011;36654;45.042;38.994;2022-11-21T02:01:55;9.95;;;4.78;;
50683;SDS011;36654;45.042;38.994;2022-11-21T02:04:24;6.93;;;4.30;;
50683;SDS011;36654;45.042;38.994;2022-11-21T02:06:54;11.68;;;4.53;;
50683;SDS011;36654;45.042;38.994;2022-11-21T02:09:20;11.30;;;4.88;;
50683;SDS011;36654;45.042;38.994;2022-11-21T02:11:48;8.55;;;4.18;;
50683;SDS011;36654;45.042;38.994;2022-11-21T02:14:18;10.25;;;4.90;;
50683;SDS011;36654;45.042;38.994;2022-11-21T02:16:44;7.70;;;4.63;;
50683;SDS011;36654;45.042;38.994;2022-11-21T02:19:14;6.65;;;4.70;;
50683;SDS011;36654;45.042;38.994;2022-11-21T02:22:09;10.30;;;5.13;;
50683;SDS011;36654;45.042;38.994;2022-11-21T02:27:31;11.55;;;5.15;;
50683;SDS011;36654;45.042;38.994;2022-11-21T02:29:57;9.32;;;4.70;;
50683;SDS011;36654;45.042;38.994;2022-11-21T02:32:24;7.40;;;4.57;;
50683;SDS011;36654;45.042;38.994;2022-11-21T02:34:57;8.52;;;4.88;;
50683;SDS011;36654;45.042;38.994;2022-11-21T02:37:23;8.18;;;5.05;;
50683;SDS011;36654;45.042;38.994;2022-11-21T02:39:48;7.88;;;4.65;;
50683;SDS011;36654;45.042;38.994;2022-11-21T02:47:11;10.88;;;4.85;;
50683;SDS011;36654;45.042;38.994;2022-11-21T02:49:39;5.40;;;4.65;;
50683;SDS011;36654;45.042;38.994;2022-11-21T02:52:26;10.77;;;4.80;;
50683;SDS011;36654;45.042;38.994;2022-11-21T02:54:51;6.88;;;5.07;;
50683;SDS011;36654;45.042;38.994;2022-11-21T02:57:17;10.00;;;5.13;;
50683;SDS011;36654;45.042;38.994;2022-11-21T02:59:43;10.48;;;5.90;;
50683;SDS011;36654;45.042;38.994;2022-11-21T03:02:08;8.75;;;5.35;;
50683;SDS011;36654;45.042;38.994;2022-11-21T03:04:34;8.88;;;4.90;;
50683;SDS011;36654;45.042;38.994;2022-11-21T03:06:59;10.88;;;4.80;;
50683;SDS011;36654;45.042;38.994;2022-11-21T03:09:25;10.45;;;5.07;;
50683;SDS011;36654;45.042;38.994;2022-11-21T03:11:51;9.13;;;4.95;;
50683;SDS011;36654;45.042;38.994;2022-11-21T03:14:16;9.90;;;4.80;;
50683;SDS011;36654;45.042;38.994;2022-11-21T03:16:42;6.75;;;5.15;;
50683;SDS011;36654;45.042;38.994;2022-11-21T03:19:07;11.55;;;5.10;;
50683;SDS011;36654;45.042;38.994;2022-11-21T03:21:33;11.02;;;5.20;;
50683;SDS011;36654;45.042;38.994;2022-11-21T03:23:59;8.93;;;5.00;;
50683;SDS011;36654;45.042;38.994;2022-11-21T03:26:24;8.13;;;5.00;;
50683;SDS011;36654;45.042;38.994;2022-11-21T03:28:50;8.38;;;4.70;;
50683;SDS011;36654;45.042;38.994;2022-11-21T03:31:15;11.27;;;5.32;;
50683;SDS011;36654;45.042;38.994;2022-11-21T03:33:41;12.20;;;5.38;;
50683;SDS011;36654;45.042;38.994;2022-11-21T03:36:07;6.47;;;5.38;;
50683;SDS011;36654;45.042;38.994;2022-11-21T03:38:33;11.15;;;5.88;;
50683;SDS011;36654;45.042;38.994;2022-11-21T03:41:02;7.43;;;5.20;;
50683;SDS011;36654;45.042;38.994;2022-11-21T03:43:29;9.50;;;4.70;;
50683;SDS011;36654;45.042;38.994;2022-11-21T03:45:54;12.10;;;5.80;;
50683;SDS011;36654;45.042;38.994;2022-11-21T03:48:20;11.02;;;5.07;;
50683;SDS011;36654;45.042;38.994;2022-11-21T03:50:46;7.28;;;5.20;;
50683;SDS011;36654;45.042;38.994;2022-11-21T03:53:11;8.10;;;5.05;;
50683;SDS011;36654;45.042;38.994;2022-11-21T03:55:37;6.43;;;4.47;;
50683;SDS011;36654;45.042;38.994;2022-11-21T03:58:03;8.00;;;4.75;;
50683;SDS011;36654;45.042;38.994;2022-11-21T04:00:28;12.93;;;5.07;;
50683;SDS011;36654;45.042;38.994;2022-11-21T04:02:54;6.65;;;5.13;;
50683;SDS011;36654;45.042;38.994;2022-11-21T04:05:19;9.00;;;5.28;;
50683;SDS011;36654;45.042;38.994;2022-11-21T04:07:45;10.60;;;5.20;;
50683;SDS011;36654;45.042;38.994;2022-11-21T04:10:10;11.55;;;5.45;;
50683;SDS011;36654;45.042;38.994;2022-11-21T04:12:36;7.20;;;5.07;;
50683;SDS011;36654;45.042;38.994;2022-11-21T04:15:02;8.18;;;5.18;;
50683;SDS011;36654;45.042;38.994;2022-11-21T04:17:28;9.40;;;5.07;;
50683;SDS011;36654;45.042;38.994;2022-11-21T04:19:55;10.30;;;5.57;;
50683;SDS011;36654;45.042;38.994;2022-11-21T04:22:21;12.63;;;6.18;;
50683;SDS011;36654;45.042;38.994;2022-11-21T04:24:47;8.85;;;5.32;;
50683;SDS011;36654;45.042;38.994;2022-11-21T04:27:12;9.95;;;5.93;;
50683;SDS011;36654;45.042;38.994;2022-11-21T04:29:38;9.35;;;5.10;;
50683;SDS011;36654;45.042;38.994;2022-11-21T04:32:04;11.20;;;5.72;;
50683;SDS011;36654;45.042;38.994;2022-11-21T04:34:29;12.80;;;5.47;;
50683;SDS011;36654;45.042;38.994;2022-11-21T04:36:55;9.85;;;5.95;;
50683;SDS011;36654;45.042;38.994;2022-11-21T04:39:20;10.93;;;5.65;;
50683;SDS011;36654;45.042;38.994;2022-11-21T04:41:46;8.68;;;4.70;;
50683;SDS011;36654;45.042;38.994;2022-11-21T04:44:12;9.93;;;5.43;;
50683;SDS011;36654;45.042;38.994;2022-11-21T04:46:37;10.38;;;5.53;;
50683;SDS011;36654;45.042;38.994;2022-11-21T04:49:03;11.30;;;4.95;;
50683;SDS011;36654;45.042;38.994;2022-11-21T04:51:29;10.70;;;5.60;;
50683;SDS011;36654;45.042;38.994;2022-11-21T04:53:54;9.95;;;5.78;;
50683;SDS011;36654;45.042;38.994;2022-11-21T04:56:20;9.77;;;5.07;;
50683;SDS011;36654;45.042;38.994;2022-11-21T04:58:45;9.50;;;5.22;;
50683;SDS011;36654;45.042;38.994;2022-11-21T05:01:11;10.73;;;5.60;;
50683;SDS011;36654;45.042;38.994;2022-11-21T05:03:37;9.10;;;4.93;;
50683;SDS011;36654;45.042;38.994;2022-11-21T05:06:02;10.30;;;5.40;;
50683;SDS011;36654;45.042;38.994;2022-11-21T05:08:28;10.75;;;5.75;;
50683;SDS011;36654;45.042;38.994;2022-11-21T05:10:54;7.95;;;4.43;;
50683;SDS011;36654;45.042;38.994;2022-11-21T05:13:38;9.45;;;5.07;;
50683;SDS011;36654;45.042;38.994;2022-11-21T05:16:03;8.77;;;5.18;;
50683;SDS011;36654;45.042;38.994;2022-11-21T05:18:29;8.75;;;5.28;;
50683;SDS011;36654;45.042;38.994;2022-11-21T05:20:55;12.55;;;6.03;;
50683;SDS011;36654;45.042;38.994;2022-11-21T05:23:20;8.77;;;5.43;;
50683;SDS011;36654;45.042;38.994;2022-11-21T05:25:46;10.73;;;5.00;;
50683;SDS011;36654;45.042;38.994;2022-11-21T05:28:12;10.65;;;5.45;;
50683;SDS011;36654;45.042;38.994;2022-11-21T05:30:37;10.10;;;5.05;;
50683;SDS011;36654;45.042;38.994;2022-11-21T05:33:03;10.55;;;5.43;;
50683;SDS011;36654;45.042;38.994;2022-11-21T05:35:29;10.80;;;5.25;;
50683;SDS011;36654;45.042;38.994;2022-11-21T05:37:57;9.73;;;5.43;;
50683;SDS011;36654;45.042;38.994;2022-11-21T05:42:49;14.57;;;5.20;;
50683;SDS011;36654;45.042;38.994;2022-11-21T05:45:33;11.85;;;4.80;;
50683;SDS011;36654;45.042;38.994;2022-11-21T05:47:58;10.48;;;5.00;;
50683;SDS011;36654;45.042;38.994;2022-11-21T05:50:24;9.43;;;5.30;;
50683;SDS011;36654;45.042;38.994;2022-11-21T05:52:50;14.45;;;5.80;;
50683;SDS011;36654;45.042;38.994;2022-11-21T05:55:15;16.23;;;5.85;;
50683;SDS011;36654;45.042;38.994;2022-11-21T05:57:41;14.13;;;5.30;;
50683;SDS011;36654;45.042;38.994;2022-11-21T06:00:08;10.95;;;5.35;;
50683;SDS011;36654;45.042;38.994;2022-11-21T06:02:34;12.23;;;5.63;;
50683;SDS011;36654;45.042;38.994;2022-11-21T06:05:18;10.10;;;5.35;;
50683;SDS011;36654;45.042;38.994;2022-11-21T06:07:44;13.02;;;5.53;;
50683;SDS011;36654;45.042;38.994;2022-11-21T06:10:10;12.40;;;5.15;;
50683;SDS011;36654;45.042;38.994;2022-11-21T06:12:35;15.93;;;6.13;;
50683;SDS011;36654;45.042;38.994;2022-11-21T06:15:01;9.35;;;4.63;;
50683;SDS011;36654;45.042;38.994;2022-11-21T06:17:26;8.27;;;5.07;;
50683;SDS011;36654;45.042;38.994;2022-11-21T06:19:52;11.90;;;5.68;;
50683;SDS011;36654;45.042;38.994;2022-11-21T06:22:18;9.63;;;5.10;;
50683;SDS011;36654;45.042;38.994;2022-11-21T06:24:45;9.82;;;4.43;;
50683;SDS011;36654;45.042;38.994;2022-11-21T06:27:11;13.05;;;5.38;;
50683;SDS011;36654;45.042;38.994;2022-11-21T06:29:37;13.23;;;6.15;;
50683;SDS011;36654;45.042;38.994;2022-11-21T06:32:02;11.15;;;4.45;;
50683;SDS011;36654;45.042;38.994;2022-11-21T06:34:28;12.02;;;5.05;;
50683;SDS011;36654;45.042;38.994;2022-11-21T06:36:54;12.00;;;5.07;;
50683;SDS011;36654;45.042;38.994;2022-11-21T06:39:19;9.13;;;4.97;;
50683;SDS011;36654;45.042;38.994;2022-11-21T06:41:45;11.48;;;5.40;;
50683;SDS011;36654;45.042;38.994;2022-11-21T06:44:16;10.55;;;4.78;;
50683;SDS011;36654;45.042;38.994;2022-11-21T06:46:44;8.95;;;4.97;;
50683;SDS011;36654;45.042;38.994;2022-11-21T06:49:10;13.98;;;5.00;;
50683;SDS011;36654;45.042;38.994;2022-11-21T06:51:36;8.93;;;4.97;;
50683;SDS011;36654;45.042;38.994;2022-11-21T06:54:01;9.93;;;5.22;;
50683;SDS011;36654;45.042;38.994;2022-11-21T06:56:28;7.93;;;4.97;;
50683;SDS011;36654;45.042;38.994;2022-11-21T06:58:55;12.48;;;5.93;;
50683;SDS011;36654;45.042;38.994;2022-11-21T07:01:22;11.35;;;5.30;;
50683;SDS011;36654;45.042;38.994;2022-11-21T07:03:47;9.63;;;5.13;;
50683;SDS011;36654;45.042;38.994;2022-11-21T07:06:15;10.82;;;4.97;;
50683;SDS011;36654;45.042;38.994;2022-11-21T07:08:41;12.30;;;5.43;;
50683;SDS011;36654;45.042;38.994;2022-11-21T07:11:07;11.20;;;5.30;;
50683;SDS011;36654;45.042;38.994;2022-11-21T07:13:35;12.60;;;6.25;;
50683;SDS011;36654;45.042;38.994;2022-11-21T07:16:02;10.88;;;5.25;;
50683;SDS011;36654;45.042;38.994;2022-11-21T07:18:29;13.05;;;5.78;;
50683;SDS011;36654;45.042;38.994;2022-11-21T07:20:58;11.48;;;5.43;;
50683;SDS011;36654;45.042;38.994;2022-11-21T07:23:25;13.02;;;4.97;;
50683;SDS011;36654;45.042;38.994;2022-11-21T07:25:52;17.95;;;5.53;;
50683;SDS011;36654;45.042;38.994;2022-11-21T07:28:17;16.70;;;5.05;;
50683;SDS011;36654;45.042;38.994;2022-11-21T07:30:43;11.52;;;4.63;;
50683;SDS011;36654;45.042;38.994;2022-11-21T07:33:09;16.83;;;5.45;;
50683;SDS011;36654;45.042;38.994;2022-11-21T07:35:35;14.27;;;5.07;;
50683;SDS011;36654;45.042;38.994;2022-11-21T07:38:00;15.25;;;5.63;;
50683;SDS011;36654;45.042;38.994;2022-11-21T07:40:27;15.05;;;5.13;;
50683;SDS011;36654;45.042;38.994;2022-11-21T07:42:58;8.85;;;4.68;;
50683;SDS011;36654;45.042;38.994;2022-11-21T07:45:25;15.23;;;5.32;;
50683;SDS011;36654;45.042;38.994;2022-11-21T07:47:57;10.77;;;4.70;;
50683;SDS011;36654;45.042;38.994;2022-11-21T07:50:27;12.15;;;4.72;;
50683;SDS011;36654;45.042;38.994;2022-11-21T07:52:57;13.35;;;4.70;;
50683;SDS011;36654;45.042;38.994;2022-11-21T07:55:23;10.43;;;4.40;;
50683;SDS011;36654;45.042;38.994;2022-11-21T07:57:56;6.68;;;3.92;;
50683;SDS011;36654;45.042;38.994;2022-11-21T08:00:23;8.85;;;4.40;;
50683;SDS011;36654;45.042;38.994;2022-11-21T08:02:50;11.55;;;4.13;;
50683;SDS011;36654;45.042;38.994;2022-11-21T08:05:15;16.25;;;4.22;;
50683;SDS011;36654;45.042;38.994;2022-11-21T08:07:41;5.55;;;3.80;;
50683;SDS011;36654;45.042;38.994;2022-11-21T08:10:07;8.48;;;4.10;;
50683;SDS011;36654;45.042;38.994;2022-11-21T08:12:32;7.90;;;3.72;;
50683;SDS011;36654;45.042;38.994;2022-11-21T08:14:58;10.48;;;3.38;;
50683;SDS011;36654;45.042;38.994;2022-11-21T08:17:27;6.88;;;3.70;;
50683;SDS011;36654;45.042;38.994;2022-11-21T08:19:52;6.82;;;3.78;;
50683;SDS011;36654;45.042;38.994;2022-11-21T08:22:18;8.23;;;3.50;;
50683;SDS011;36654;45.042;38.994;2022-11-21T08:24:44;7.03;;;3.35;;
50683;SDS011;36654;45.042;38.994;2022-11-21T08:27:09;8.48;;;3.50;;
50683;SDS011;36654;45.042;38.994;2022-11-21T08:29:35;8.13;;;4.13;;
50683;SDS011;36654;45.042;38.994;2022-11-21T08:32:00;5.72;;;3.55;;
50683;SDS011;36654;45.042;38.994;2022-11-21T08:34:26;6.53;;;3.55;;
50683;SDS011;36654;45.042;38.994;2022-11-21T08:36:55;8.13;;;3.88;;
50683;SDS011;36654;45.042;38.994;2022-11-21T08:39:22;5.88;;;3.47;;
50683;SDS011;36654;45.042;38.994;2022-11-21T08:41:49;8.23;;;3.50;;
50683;SDS011;36654;45.042;38.994;2022-11-21T08:44:31;7.32;;;3.63;;
50683;SDS011;36654;45.042;38.994;2022-11-21T08:46:58;4.30;;;3.60;;
50683;SDS011;36654;45.042;38.994;2022-11-21T08:49:25;6.78;;;3.63;;
50683;SDS011;36654;45.042;38.994;2022-11-21T08:51:50;5.43;;;3.83;;
50683;SDS011;36654;45.042;38.994;2022-11-21T08:54:20;7.40;;;3.67;;
50683;SDS011;36654;45.042;38.994;2022-11-21T08:56:48;8.10;;;3.83;;
50683;SDS011;36654;45.042;38.994;2022-11-21T08:59:14;9.50;;;4.13;;
50683;SDS011;36654;45.042;38.994;2022-11-21T09:01:40;10.85;;;4.40;;
50683;SDS011;36654;45.042;38.994;2022-11-21T09:04:06;11.25;;;4.47;;
50683;SDS011;36654;45.042;38.994;2022-11-21T09:06:32;6.07;;;3.40;;
50683;SDS011;36654;45.042;38.994;2022-11-21T09:08:59;5.85;;;3.33;;
50683;SDS011;36654;45.042;38.994;2022-11-21T09:11:24;12.48;;;4.22;;
50683;SDS011;36654;45.042;38.994;2022-11-21T09:13:50;12.80;;;4.93;;
50683;SDS011;36654;45.042;38.994;2022-11-21T09:16:35;10.77;;;4.70;;
50683;SDS011;36654;45.042;38.994;2022-11-21T09:19:20;6.50;;;3.83;;
50683;SDS011;36654;45.042;38.994;2022-11-21T09:21:49;9.13;;;4.00;;
50683;SDS011;36654;45.042;38.994;2022-11-21T09:24:15;6.82;;;3.60;;
50683;SDS011;36654;45.042;38.994;2022-11-21T09:26:41;10.07;;;3.97;;
50683;SDS011;36654;45.042;38.994;2022-11-21T09:29:07;9.60;;;4.07;;
50683;SDS011;36654;45.042;38.994;2022-11-21T09:31:35;9.25;;;4.15;;
50683;SDS011;36654;45.042;38.994;2022-11-21T09:34:02;7.00;;;4.00;;
50683;SDS011;36654;45.042;38.994;2022-11-21T09:36:28;9.95;;;4.18;;
50683;SDS011;36654;45.042;38.994;2022-11-21T09:38:53;10.38;;;4.15;;
50683;SDS011;36654;45.042;38.994;2022-11-21T09:41:27;9.50;;;4.57;;
50683;SDS011;36654;45.042;38.994;2022-11-21T09:44:18;7.88;;;4.00;;
50683;SDS011;36654;45.042;38.994;2022-11-21T09:46:48;10.02;;;4.32;;
50683;SDS011;36654;45.042;38.994;2022-11-21T09:49:20;6.43;;;3.97;;
50683;SDS011;36654;45.042;38.994;2022-11-21T09:51:48;6.10;;;3.90;;
50683;SDS011;36654;45.042;38.994;2022-11-21T09:54:17;8.07;;;4.07;;
50683;SDS011;36654;45.042;38.994;2022-11-21T09:57:10;8.45;;;3.72;;
50683;SDS011;36654;45.042;38.994;2022-11-21T09:59:39;6.70;;;4.00;;
50683;SDS011;36654;45.042;38.994;2022-11-21T10:02:15;7.30;;;4.15;;
50683;SDS011;36654;45.042;38.994;2022-11-21T10:04:43;7.28;;;3.78;;
50683;SDS011;36654;45.042;38.994;2022-11-21T10:15:18;8.10;;;4.50;;
50683;SDS011;36654;45.042;38.994;2022-11-21T10:20:48;14.63;;;3.83;;
50683;SDS011;36654;45.042;38.994;2022-11-21T10:25:55;9.40;;;4.63;;
50683;SDS011;36654;45.042;38.994;2022-11-21T10:28:32;7.38;;;4.57;;
50683;SDS011;36654;45.042;38.994;2022-11-21T10:31:10;6.95;;;4.38;;
50683;SDS011;36654;45.042;38.994;2022-11-21T10:33:38;12.20;;;4.28;;
50683;SDS011;36654;45.042;38.994;2022-11-21T10:38:42;10.30;;;4.32;;
50683;SDS011;36654;45.042;38.994;2022-11-21T10:41:13;9.70;;;4.38;;
50683;SDS011;36654;45.042;38.994;2022-11-21T10:43:53;5.93;;;4.13;;
50683;SDS011;36654;45.042;38.994;2022-11-21T10:46:54;9.70;;;4.82;;
50683;SDS011;36654;45.042;38.994;2022-11-21T10:49:24;7.35;;;3.55;;
50683;SDS011;36654;45.042;38.994;2022-11-21T10:52:15;12.95;;;5.32;;
50683;SDS011;36654;45.042;38.994;2022-11-21T10:57:46;7.28;;;3.90;;
50683;SDS011;36654;45.042;38.994;2022-11-21T11:00:22;6.72;;;4.70;;
50683;SDS011;36654;45.042;38.994;2022-11-21T11:05:25;8.15;;;4.10;;
50683;SDS011;36654;45.042;38.994;2022-11-21T11:10:31;8.27;;;4.38;;
50683;SDS011;36654;45.042;38.994;2022-11-21T11:12:59;11.13;;;5.18;;
50683;SDS011;36654;45.042;38.994;2022-11-21T11:15:54;9.27;;;4.72;;
50683;SDS011;36654;45.042;38.994;2022-11-21T11:18:36;9.95;;;5.32;;
50683;SDS011;36654;45.042;38.994;2022-11-21T11:23:41;8.48;;;4.95;;
50683;SDS011;36654;45.042;38.994;2022-11-21T11:29:12;12.32;;;5.43;;
50683;SDS011;36654;45.042;38.994;2022-11-21T11:32:21;8.43;;;5.07;;
50683;SDS011;36654;45.042;38.994;2022-11-21T11:34:40;13.07;;;6.38;;
50683;SDS011;36654;45.042;38.994;2022-11-21T11:43:05;6.95;;;4.38;;
50683;SDS011;36654;45.042;38.994;2022-11-21T11:52:27;10.77;;;4.40;;
50683;SDS011;36654;45.042;38.994;2022-11-21T11:55:07;11.07;;;4.78;;
50683;SDS011;36654;45.042;38.994;2022-11-21T11:57:42;8.70;;;4.72;;
50683;SDS011;36654;45.042;38.994;2022-11-21T12:05:50;12.98;;;5.32;;
50683;SDS011;36654;45.042;38.994;2022-11-21T12:08:23;14.10;;;5.35;;
50683;SDS011;36654;45.042;38.994;2022-11-21T12:11:04;9.80;;;5.28;;
50683;SDS011;36654;45.042;38.994;2022-11-21T12:14:09;10.98;;;4.90;;
50683;SDS011;36654;45.042;38.994;2022-11-21T12:16:58;11.30;;;5.88;;
50683;SDS011;36654;45.042;38.994;2022-11-21T12:19:26;11.43;;;5.65;;
50683;SDS011;36654;45.042;38.994;2022-11-21T12:21:52;13.05;;;6.13;;
50683;SDS011;36654;45.042;38.994;2022-11-21T12:24:17;13.45;;;5.60;;
50683;SDS011;36654;45.042;38.994;2022-11-21T12:32:23;14.77;;;5.97;;
50683;SDS011;36654;45.042;38.994;2022-11-21T12:34:56;12.63;;;5.28;;
50683;SDS011;36654;45.042;38.994;2022-11-21T12:45:50;10.15;;;5.05;;
50683;SDS011;36654;45.042;38.994;2022-11-21T12:51:43;13.20;;;5.30;;
50683;SDS011;36654;45.042;38.994;2022-11-21T12:57:19;10.15;;;5.18;;
50683;SDS011;36654;45.042;38.994;2022-11-21T13:05:28;15.15;;;5.68;;
50683;SDS011;36654;45.042;38.994;2022-11-21T13:08:03;15.45;;;6.07;;
50683;SDS011;36654;45.042;38.994;2022-11-21T13:10:34;13.32;;;6.50;;
50683;SDS011;36654;45.042;38.994;2022-11-21T13:18:25;17.00;;;6.95;;
50683;SDS011;36654;45.042;38.994;2022-11-21T13:20:57;15.07;;;6.63;;
50683;SDS011;36654;45.042;38.994;2022-11-21T13:26:00;16.02;;;8.23;;
50683;SDS011;36654;45.042;38.994;2022-11-21T13:28:29;19.02;;;7.75;;
50683;SDS011;36654;45.042;38.994;2022-11-21T13:30:57;15.75;;;7.38;;
50683;SDS011;36654;45.042;38.994;2022-11-21T13:36:12;13.77;;;6.78;;
50683;SDS011;36654;45.042;38.994;2022-11-21T13:46:57;15.77;;;7.93;;
50683;SDS011;36654;45.042;38.994;2022-11-21T13:52:10;24.90;;;9.32;;
50683;SDS011;36654;45.042;38.994;2022-11-21T14:09:19;21.05;;;11.65;;
50683;SDS011;36654;45.042;38.994;2022-11-21T14:19:51;18.63;;;8.35;;
50683;SDS011;36654;45.042;38.994;2022-11-21T14:22:34;21.65;;;9.70;;
50683;SDS011;36654;45.042;38.994;2022-11-21T14:25:08;17.60;;;8.82;;
50683;SDS011;36654;45.042;38.994;2022-11-21T14:27:43;18.33;;;6.82;;
50683;SDS011;36654;45.042;38.994;2022-11-21T14:30:28;15.88;;;7.97;;
50683;SDS011;36654;45.042;38.994;2022-11-21T14:35:54;22.08;;;8.82;;
50683;SDS011;36654;45.042;38.994;2022-11-21T14:38:38;17.30;;;7.78;;
50683;SDS011;36654;45.042;38.994;2022-11-21T14:43:42;13.27;;;7.15;;
50683;SDS011;36654;45.042;38.994;2022-11-21T14:46:14;18.50;;;7.90;;
50683;SDS011;36654;45.042;38.994;2022-11-21T14:48:41;13.52;;;6.05;;
50683;SDS011;36654;45.042;38.994;2022-11-21T14:51:07;12.20;;;6.35;;
50683;SDS011;36654;45.042;38.994;2022-11-21T14:53:42;24.50;;;9.80;;
50683;SDS011;36654;45.042;38.994;2022-11-21T14:56:12;16.98;;;7.65;;
50683;SDS011;36654;45.042;38.994;2022-11-21T14:58:47;32.45;;;13.82;;
50683;SDS011;36654;45.042;38.994;2022-11-21T15:01:20;28.77;;;12.98;;
50683;SDS011;36654;45.042;38.994;2022-11-21T15:04:00;28.02;;;14.13;;
50683;SDS011;36654;45.042;38.994;2022-11-21T15:06:30;17.63;;;8.98;;
50683;SDS011;36654;45.042;38.994;2022-11-21T15:09:11;23.63;;;13.10;;
50683;SDS011;36654;45.042;38.994;2022-11-21T15:11:49;38.65;;;18.23;;
50683;SDS011;36654;45.042;38.994;2022-11-21T15:19:28;33.92;;;15.90;;
50683;SDS011;36654;45.042;38.994;2022-11-21T15:21:56;43.13;;;18.17;;
50683;SDS011;36654;45.042;38.994;2022-11-21T15:26:58;42.55;;;19.70;;
50683;SDS011;36654;45.042;38.994;2022-11-21T15:29:23;44.67;;;20.42;;
50683;SDS011;36654;45.042;38.994;2022-11-21T15:32:05;44.08;;;22.02;;
50683;SDS011;36654;45.042;38.994;2022-11-21T15:34:32;51.65;;;24.15;;
50683;SDS011;36654;45.042;38.994;2022-11-21T15:37:16;51.70;;;22.58;;
50683;SDS011;36654;45.042;38.994;2022-11-21T15:39:43;50.90;;;24.83;;
50683;SDS011;36654;45.042;38.994;2022-11-21T15:47:38;52.28;;;26.70;;
50683;SDS011;36654;45.042;38.994;2022-11-21T15:50:04;70.97;;;33.45;;
50683;SDS011;36654;45.042;38.994;2022-11-21T15:52:31;60.72;;;30.63;;
50683;SDS011;36654;45.042;38.994;2022-11-21T15:55:28;74.22;;;33.42;;
50683;SDS011;36654;45.042;38.994;2022-11-21T15:57:54;58.08;;;26.85;;
50683;SDS011;36654;45.042;38.994;2022-11-21T16:00:19;64.00;;;31.95;;
50683;SDS011;36654;45.042;38.994;2022-11-21T16:02:45;42.13;;;20.42;;
50683;SDS011;36654;45.042;38.994;2022-11-21T16:05:11;66.72;;;28.83;;
50683;SDS011;36654;45.042;38.994;2022-11-21T16:07:38;55.30;;;24.27;;
50683;SDS011;36654;45.042;38.994;2022-11-21T16:10:04;32.80;;;18.00;;
50683;SDS011;36654;45.042;38.994;2022-11-21T16:12:30;43.17;;;17.77;;
50683;SDS011;36654;45.042;38.994;2022-11-21T16:14:55;47.88;;;20.55;;
50683;SDS011;36654;45.042;38.994;2022-11-21T16:17:21;29.30;;;13.73;;
50683;SDS011;36654;45.042;38.994;2022-11-21T16:19:47;60.00;;;26.17;;
50683;SDS011;36654;45.042;38.994;2022-11-21T16:22:12;53.72;;;24.48;;
50683;SDS011;36654;45.042;38.994;2022-11-21T16:24:38;45.17;;;18.05;;
50683;SDS011;36654;45.042;38.994;2022-11-21T16:27:04;54.85;;;25.95;;
50683;SDS011;36654;45.042;38.994;2022-11-21T16:29:29;48.28;;;23.00;;
50683;SDS011;36654;45.042;38.994;2022-11-21T16:31:55;50.70;;;25.25;;
50683;SDS011;36654;45.042;38.994;2022-11-21T16:34:20;59.17;;;25.48;;
50683;SDS011;36654;45.042;38.994;2022-11-21T16:36:49;44.85;;;21.13;;
50683;SDS011;36654;45.042;38.994;2022-11-21T16:39:14;47.38;;;21.13;;
50683;SDS011;36654;45.042;38.994;2022-11-21T16:41:40;54.97;;;24.20;;
50683;SDS011;36654;45.042;38.994;2022-11-21T16:44:10;38.80;;;17.60;;
50683;SDS011;36654;45.042;38.994;2022-11-21T16:46:41;60.65;;;24.90;;
50683;SDS011;36654;45.042;38.994;2022-11-21T16:49:08;42.03;;;19.38;;
50683;SDS011;36654;45.042;38.994;2022-11-21T16:51:34;42.55;;;19.90;;
50683;SDS011;36654;45.042;38.994;2022-11-21T16:54:00;42.60;;;20.50;;
50683;SDS011;36654;45.042;38.994;2022-11-21T16:56:25;44.17;;;22.35;;
50683;SDS011;36654;45.042;38.994;2022-11-21T16:58:51;45.47;;;21.50;;
50683;SDS011;36654;45.042;38.994;2022-11-21T17:01:20;52.33;;;26.33;;
50683;SDS011;36654;45.042;38.994;2022-11-21T17:03:47;45.65;;;21.80;;
50683;SDS011;36654;45.042;38.994;2022-11-21T17:06:17;46.00;;;22.05;;